createdAt,value
2018-11-07T00:00:57.399Z,6.91
2018-11-07T00:01:57.435Z,6.92
2018-11-07T00:02:57.998Z,6.94
2018-11-07T00:03:57.429Z,6.93
2018-11-07T00:04:57.393Z,6.94
2018-11-07T00:05:57.383Z,6.95
2018-11-07T00:06:57.381Z,6.93
2018-11-07T00:07:58.115Z,6.93
2018-11-07T00:08:57.485Z,6.94
2018-11-07T00:09:57.409Z,6.91
2018-11-07T00:10:57.412Z,6.94
2018-11-07T00:11:57.378Z,6.92
2018-11-07T00:12:57.376Z,6.94
2018-11-07T00:13:58.400Z,6.91
2018-11-07T00:14:57.602Z,6.92
2018-11-07T00:15:57.510Z,6.92
2018-11-07T00:16:57.452Z,6.94
2018-11-07T00:17:57.574Z,7.01
2018-11-07T00:18:57.400Z,6.97
2018-11-07T00:19:57.472Z,6.95
2018-11-07T00:20:57.640Z,6.96
2018-11-07T00:21:57.654Z,6.97
2018-11-07T00:22:57.744Z,6.99
2018-11-07T00:23:58.328Z,6.97
2018-11-07T00:24:57.495Z,6.96
2018-11-07T00:25:57.380Z,6.93
2018-11-07T00:26:57.450Z,6.87
2018-11-07T00:27:57.385Z,6.89
2018-11-07T00:28:57.440Z,6.88
2018-11-07T00:29:57.721Z,6.89
2018-11-07T00:30:57.398Z,6.89
2018-11-07T00:31:57.494Z,6.91
2018-11-07T00:32:57.379Z,6.9
2018-11-07T00:33:57.349Z,6.91
2018-11-07T00:34:57.592Z,6.89
2018-11-07T00:35:57.383Z,7
2018-11-07T00:36:57.519Z,6.93
2018-11-07T00:37:57.325Z,6.94
2018-11-07T00:38:57.508Z,6.95
2018-11-07T00:39:57.420Z,6.99
2018-11-07T00:40:57.343Z,7
2018-11-07T00:41:57.480Z,7.07
2018-11-07T00:42:57.318Z,7.02
2018-11-07T00:43:57.309Z,7
2018-11-07T00:44:57.519Z,6.99
2018-11-07T00:45:57.494Z,6.99
2018-11-07T00:46:57.358Z,6.98
2018-11-07T00:47:57.315Z,6.97
2018-11-07T00:48:57.326Z,6.97
2018-11-07T00:49:57.343Z,6.99
2018-11-07T00:50:57.299Z,6.99
2018-11-07T00:51:57.504Z,7.08
2018-11-07T00:52:57.385Z,7.04
2018-11-07T00:53:57.299Z,7
2018-11-07T00:54:57.306Z,7.01
2018-11-07T00:55:57.509Z,7
2018-11-07T00:56:57.393Z,6.97
2018-11-07T00:57:57.690Z,6.98
2018-11-07T00:58:57.360Z,6.93
2018-11-07T00:59:57.285Z,6.94
2018-11-07T01:00:57.298Z,6.95
2018-11-07T01:01:57.312Z,6.93
2018-11-07T01:02:57.707Z,6.94
2018-11-07T01:03:57.319Z,6.95
2018-11-07T01:04:57.327Z,6.91
2018-11-07T01:05:57.283Z,6.92
2018-11-07T01:06:57.256Z,6.94
2018-11-07T01:07:57.260Z,6.93
2018-11-07T01:08:57.333Z,6.93
2018-11-07T01:09:57.279Z,6.89
2018-11-07T01:10:57.651Z,6.91
2018-11-07T01:11:57.266Z,6.86
2018-11-07T01:12:57.411Z,6.84
2018-11-07T01:13:57.483Z,6.85
2018-11-07T01:14:57.371Z,6.84
2018-11-07T01:15:57.327Z,6.84
2018-11-07T01:16:57.257Z,6.81
2018-11-07T01:17:57.250Z,6.81
2018-11-07T01:18:57.645Z,6.81
2018-11-07T01:19:57.257Z,6.86
2018-11-07T01:20:57.253Z,6.85
2018-11-07T01:21:57.290Z,6.85
2018-11-07T01:22:57.243Z,6.82
2018-11-07T01:23:57.294Z,6.81
2018-11-07T01:24:57.253Z,6.81
2018-11-07T01:25:57.434Z,6.78
2018-11-07T01:26:57.267Z,6.75
2018-11-07T01:27:57.237Z,6.74
2018-11-07T01:28:57.354Z,6.75
2018-11-07T01:29:57.280Z,6.75
2018-11-07T01:30:57.341Z,6.74
2018-11-07T01:31:57.250Z,6.77
2018-11-07T01:32:57.238Z,6.72
2018-11-07T01:33:57.220Z,6.75
2018-11-07T01:34:57.276Z,6.72
2018-11-07T01:35:57.259Z,6.73
2018-11-07T01:36:57.246Z,6.71
2018-11-07T01:37:57.222Z,6.74
2018-11-07T01:38:57.251Z,6.74
2018-11-07T01:39:57.455Z,6.71
2018-11-07T01:40:57.376Z,6.71
2018-11-07T01:41:57.706Z,6.67
2018-11-07T01:42:57.197Z,6.72
2018-11-07T01:43:57.514Z,6.77
2018-11-07T01:44:57.585Z,6.73
2018-11-07T01:45:57.261Z,6.76
2018-11-07T01:46:57.501Z,6.71
2018-11-07T01:47:57.321Z,6.7
2018-11-07T01:48:57.224Z,6.66
2018-11-07T01:49:57.606Z,6.67
2018-11-07T01:50:57.258Z,6.65
2018-11-07T01:51:57.349Z,6.63
2018-11-07T01:52:57.597Z,6.62
2018-11-07T01:53:57.267Z,6.65
2018-11-07T01:54:57.198Z,6.67
2018-11-07T01:55:57.279Z,6.67
2018-11-07T01:56:57.224Z,6.65
2018-11-07T01:57:57.226Z,6.57
2018-11-07T01:58:57.385Z,6.59
2018-11-07T01:59:57.343Z,6.6
2018-11-07T02:00:57.196Z,6.67
2018-11-07T02:01:57.303Z,6.66
2018-11-07T02:02:57.264Z,6.64
2018-11-07T02:03:57.365Z,6.66
2018-11-07T02:04:57.177Z,6.65
2018-11-07T02:05:57.310Z,6.61
2018-11-07T02:06:57.217Z,6.62
2018-11-07T02:07:57.200Z,6.62
2018-11-07T02:08:57.441Z,6.62
2018-11-07T02:09:57.457Z,6.61
2018-11-07T02:10:57.160Z,6.62
2018-11-07T02:11:57.268Z,6.6
2018-11-07T02:12:57.167Z,6.62
2018-11-07T02:13:57.304Z,6.63
2018-11-07T02:14:57.247Z,6.61
2018-11-07T02:15:57.513Z,6.59
2018-11-07T02:16:57.342Z,6.57
2018-11-07T02:17:57.271Z,6.54
2018-11-07T02:18:57.345Z,6.53
2018-11-07T02:19:57.167Z,6.47
2018-11-07T02:20:57.172Z,6.49
2018-11-07T02:21:57.152Z,6.48
2018-11-07T02:22:57.434Z,6.45
2018-11-07T02:23:57.583Z,6.4
2018-11-07T02:24:57.353Z,6.42
2018-11-07T02:25:57.178Z,6.41
2018-11-07T02:26:57.185Z,6.38
2018-11-07T02:27:57.258Z,6.37
2018-11-07T02:28:57.147Z,6.42
2018-11-07T02:29:57.202Z,6.43
2018-11-07T02:30:57.298Z,6.42
2018-11-07T02:31:57.162Z,6.4
2018-11-07T02:32:57.184Z,6.41
2018-11-07T02:33:57.216Z,6.42
2018-11-07T02:34:57.278Z,6.41
2018-11-07T02:35:57.152Z,6.42
2018-11-07T02:36:57.827Z,6.44
2018-11-07T02:37:57.229Z,6.51
2018-11-07T02:38:57.204Z,6.53
2018-11-07T02:39:57.284Z,6.48
2018-11-07T02:40:57.092Z,6.5
2018-11-07T02:41:58.207Z,6.52
2018-11-07T02:42:57.232Z,6.5
2018-11-07T02:43:57.140Z,6.48
2018-11-07T02:44:57.156Z,6.47
2018-11-07T02:45:57.232Z,6.49
2018-11-07T02:46:57.281Z,6.5
2018-11-07T02:47:57.144Z,6.46
2018-11-07T02:48:57.585Z,6.42
2018-11-07T02:49:57.105Z,6.46
2018-11-07T02:50:57.195Z,6.44
2018-11-07T02:51:57.125Z,6.45
2018-11-07T02:52:57.131Z,6.41
2018-11-07T02:53:57.122Z,6.45
2018-11-07T02:54:57.237Z,6.41
2018-11-07T02:55:57.145Z,6.43
2018-11-07T02:56:57.150Z,6.45
2018-11-07T02:57:57.162Z,6.39
2018-11-07T02:58:57.473Z,6.38
2018-11-07T02:59:57.139Z,6.41
2018-11-07T03:00:57.505Z,6.39
2018-11-07T03:01:57.180Z,6.37
2018-11-07T03:02:57.126Z,6.35
2018-11-07T03:03:57.822Z,6.38
2018-11-07T03:04:57.123Z,6.38
2018-11-07T03:05:57.103Z,6.4
2018-11-07T03:06:57.584Z,6.39
2018-11-07T03:07:57.105Z,6.36
2018-11-07T03:08:57.245Z,6.35
2018-11-07T03:09:57.253Z,6.38
2018-11-07T03:10:57.218Z,6.34
2018-11-07T03:11:57.144Z,6.33
2018-11-07T03:12:57.491Z,6.37
2018-11-07T03:13:57.073Z,6.33
2018-11-07T03:14:57.106Z,6.33
2018-11-07T03:15:57.545Z,6.37
2018-11-07T03:16:57.300Z,6.39
2018-11-07T03:17:57.173Z,6.41
2018-11-07T03:18:57.183Z,6.4
2018-11-07T03:19:57.092Z,6.39
2018-11-07T03:20:57.105Z,6.36
2018-11-07T03:21:57.128Z,6.37
2018-11-07T03:22:57.073Z,6.36
2018-11-07T03:23:57.208Z,6.35
2018-11-07T03:24:57.188Z,6.33
2018-11-07T03:25:57.469Z,6.33
2018-11-07T03:26:57.264Z,6.35
2018-11-07T03:27:57.311Z,6.34
2018-11-07T03:28:57.309Z,6.34
2018-11-07T03:29:57.500Z,6.38
2018-11-07T03:30:57.090Z,6.39
2018-11-07T03:31:57.322Z,6.36
2018-11-07T03:32:57.204Z,6.34
2018-11-07T03:33:57.266Z,6.39
2018-11-07T03:34:57.550Z,6.36
2018-11-07T03:35:57.192Z,6.34
2018-11-07T03:36:57.230Z,6.34
2018-11-07T03:37:57.233Z,6.33
2018-11-07T03:38:57.117Z,6.31
2018-11-07T03:39:57.974Z,6.3
2018-11-07T03:40:57.300Z,6.27
2018-11-07T03:41:57.123Z,6.29
2018-11-07T03:42:57.090Z,6.27
2018-11-07T03:43:57.095Z,6.35
2018-11-07T03:44:57.145Z,6.34
2018-11-07T03:45:57.093Z,6.35
2018-11-07T03:46:57.104Z,6.32
2018-11-07T03:47:57.092Z,6.34
2018-11-07T03:48:57.083Z,6.35
2018-11-07T03:49:57.096Z,6.33
2018-11-07T03:50:57.179Z,6.32
2018-11-07T03:51:57.458Z,6.3
2018-11-07T03:52:57.431Z,6.29
2018-11-07T03:53:57.106Z,6.3
2018-11-07T03:54:57.463Z,6.3
2018-11-07T03:55:57.365Z,6.3
2018-11-07T03:56:57.126Z,6.3
2018-11-07T03:57:57.126Z,6.24
2018-11-07T03:58:57.138Z,6.26
2018-11-07T03:59:57.096Z,6.27
2018-11-07T04:00:57.191Z,6.23
2018-11-07T04:01:57.030Z,6.2
2018-11-07T04:02:57.235Z,6.19
2018-11-07T04:03:57.320Z,6.23
2018-11-07T04:04:57.225Z,6.21
2018-11-07T04:05:57.201Z,6.21
2018-11-07T04:06:57.147Z,6.23
2018-11-07T04:07:57.130Z,6.19
2018-11-07T04:08:57.188Z,6.14
2018-11-07T04:09:57.114Z,6.15
2018-11-07T04:10:57.023Z,6.15
2018-11-07T04:11:57.168Z,6.17
2018-11-07T04:12:57.418Z,6.15
2018-11-07T04:13:57.003Z,6.18
2018-11-07T04:14:57.028Z,6.19
2018-11-07T04:15:57.091Z,6.19
2018-11-07T04:16:57.051Z,6.16
2018-11-07T04:17:57.110Z,6.2
2018-11-07T04:18:57.124Z,6.21
2018-11-07T04:19:57.080Z,6.18
2018-11-07T04:20:57.037Z,6.16
2018-11-07T04:21:56.995Z,6.14
2018-11-07T04:22:57.002Z,6.13
2018-11-07T04:23:57.025Z,6.09
2018-11-07T04:24:56.997Z,6.1
2018-11-07T04:25:56.991Z,6.08
2018-11-07T04:26:57.282Z,6.07
2018-11-07T04:27:56.984Z,6.09
2018-11-07T04:28:57.191Z,6.07
2018-11-07T04:29:57.024Z,6.04
2018-11-07T04:30:57.030Z,6.04
2018-11-07T04:31:57.100Z,6.04
2018-11-07T04:32:56.968Z,6
2018-11-07T04:33:57.034Z,6
2018-11-07T04:34:57.028Z,5.99
2018-11-07T04:35:56.992Z,5.96
2018-11-07T04:36:57.053Z,5.94
2018-11-07T04:37:57.146Z,5.91
2018-11-07T04:38:57.501Z,5.89
2018-11-07T04:39:57.477Z,5.91
2018-11-07T04:40:57.067Z,5.89
2018-11-07T04:41:57.119Z,5.85
2018-11-07T04:42:57.069Z,5.83
2018-11-07T04:43:57.110Z,5.81
2018-11-07T04:44:57.654Z,5.81
2018-11-07T04:45:57.041Z,5.85
2018-11-07T04:46:57.125Z,5.84
2018-11-07T04:47:57.033Z,5.86
2018-11-07T04:48:57.074Z,5.88
2018-11-07T04:49:56.985Z,5.82
2018-11-07T04:50:57.060Z,5.77
2018-11-07T04:51:57.244Z,5.8
2018-11-07T04:52:57.036Z,5.79
2018-11-07T04:53:57.169Z,5.77
2018-11-07T04:54:57.027Z,5.75
2018-11-07T04:55:57.050Z,5.74
2018-11-07T04:56:57.027Z,5.74
2018-11-07T04:57:57.188Z,5.71
2018-11-07T04:58:57.097Z,5.66
2018-11-07T04:59:57.180Z,5.67
2018-11-07T05:00:57.199Z,5.67
2018-11-07T05:01:57.305Z,5.67
2018-11-07T05:02:56.957Z,5.64
2018-11-07T05:03:56.971Z,5.6
2018-11-07T05:04:56.981Z,5.62
2018-11-07T05:05:57.120Z,5.62
2018-11-07T05:06:57.093Z,5.57
2018-11-07T05:07:57.576Z,5.55
2018-11-07T05:08:57.041Z,5.59
2018-11-07T05:09:57.041Z,5.55
2018-11-07T05:10:57.062Z,5.49
2018-11-07T05:11:56.966Z,5.48
2018-11-07T05:12:57.094Z,5.48
2018-11-07T05:13:57.085Z,5.52
2018-11-07T05:14:57.003Z,5.52
2018-11-07T05:15:56.914Z,5.53
2018-11-07T05:16:57.009Z,5.56
2018-11-07T05:17:57.023Z,5.54
2018-11-07T05:18:57.222Z,5.55
2018-11-07T05:19:57.125Z,5.55
2018-11-07T05:20:56.932Z,5.53
2018-11-07T05:21:57.141Z,5.61
2018-11-07T05:22:57.054Z,5.58
2018-11-07T05:23:57.016Z,5.55
2018-11-07T05:24:57.004Z,5.52
2018-11-07T05:25:57.015Z,5.55
2018-11-07T05:26:57.007Z,5.54
2018-11-07T05:27:56.880Z,5.57
2018-11-07T05:28:57.116Z,5.51
2018-11-07T05:29:56.985Z,5.51
2018-11-07T05:30:57.151Z,5.57
2018-11-07T05:31:57.449Z,5.57
2018-11-07T05:32:56.994Z,5.61
2018-11-07T05:33:57.253Z,5.61
2018-11-07T05:34:57.020Z,5.56
2018-11-07T05:35:56.971Z,5.58
2018-11-07T05:36:57.052Z,5.59
2018-11-07T05:37:57.140Z,5.58
2018-11-07T05:38:57.451Z,5.61
2018-11-07T05:39:57.146Z,5.57
2018-11-07T05:40:57.603Z,5.63
2018-11-07T05:41:57.198Z,5.66
2018-11-07T05:42:57.325Z,5.64
2018-11-07T05:43:57.188Z,5.68
2018-11-07T05:44:57.231Z,5.67
2018-11-07T05:45:57.000Z,5.68
2018-11-07T05:46:56.864Z,5.64
2018-11-07T05:47:56.919Z,5.66
2018-11-07T05:48:57.380Z,5.66
2018-11-07T05:49:56.878Z,5.63
2018-11-07T05:50:57.045Z,5.61
2018-11-07T05:51:56.870Z,5.6
2018-11-07T05:52:56.913Z,5.62
2018-11-07T05:53:57.178Z,5.6
2018-11-07T05:54:56.866Z,5.59
2018-11-07T05:55:56.923Z,5.59
2018-11-07T05:56:56.878Z,5.56
2018-11-07T05:57:56.873Z,5.57
2018-11-07T05:58:56.830Z,5.6
2018-11-07T05:59:56.873Z,5.61
2018-11-07T06:00:56.853Z,5.62
2018-11-07T06:01:56.840Z,5.59
2018-11-07T06:02:56.848Z,5.59
2018-11-07T06:03:56.872Z,5.57
2018-11-07T06:04:57.143Z,5.61
2018-11-07T06:05:56.876Z,5.69
2018-11-07T06:06:57.032Z,5.66
2018-11-07T06:07:56.850Z,5.66
2018-11-07T06:08:57.056Z,5.69
2018-11-07T06:09:57.190Z,5.66
2018-11-07T06:10:57.065Z,5.69
2018-11-07T06:11:57.195Z,5.67
2018-11-07T06:12:56.901Z,5.78
2018-11-07T06:13:57.764Z,5.76
2018-11-07T06:14:56.976Z,5.77
2018-11-07T06:15:57.229Z,5.72
2018-11-07T06:16:56.978Z,5.8
2018-11-07T06:17:57.197Z,5.76
2018-11-07T06:18:57.184Z,5.75
2018-11-07T06:19:57.349Z,5.69
2018-11-07T06:20:57.224Z,5.75
2018-11-07T06:21:56.822Z,5.76
2018-11-07T06:23:00.099Z,5.72
2018-11-07T06:23:57.181Z,5.81
2018-11-07T06:24:58.039Z,5.77
2018-11-07T06:25:57.356Z,5.77
2018-11-07T06:26:56.998Z,5.72
2018-11-07T06:27:57.209Z,5.74
2018-11-07T06:28:57.026Z,5.75
2018-11-07T06:29:56.829Z,5.78
2018-11-07T06:30:56.872Z,5.72
2018-11-07T06:31:56.809Z,5.79
2018-11-07T06:32:57.232Z,5.81
2018-11-07T06:33:57.261Z,5.82
2018-11-07T06:34:56.830Z,5.79
2018-11-07T06:35:56.819Z,5.86
2018-11-07T06:36:57.206Z,5.88
2018-11-07T06:37:56.929Z,5.86
2018-11-07T06:38:57.216Z,5.85
2018-11-07T06:39:56.990Z,5.85
2018-11-07T06:40:57.175Z,5.92
2018-11-07T06:41:57.152Z,5.93
2018-11-07T06:42:56.823Z,5.97
2018-11-07T06:43:56.876Z,5.96
2018-11-07T06:44:56.822Z,5.97
2018-11-07T06:45:57.187Z,5.95
2018-11-07T06:46:57.180Z,5.94
2018-11-07T06:47:56.883Z,5.95
2018-11-07T06:48:56.927Z,5.93
2018-11-07T06:49:56.784Z,6.03
2018-11-07T06:50:56.817Z,6.13
2018-11-07T06:51:56.867Z,6.07
2018-11-07T06:52:56.858Z,6.08
2018-11-07T06:53:56.814Z,6.08
2018-11-07T06:54:56.821Z,6.02
2018-11-07T06:55:56.907Z,6.04
2018-11-07T06:56:56.825Z,6.07
2018-11-07T06:57:56.937Z,6.08
2018-11-07T06:58:56.980Z,6.05
2018-11-07T06:59:56.769Z,6.01
2018-11-07T07:00:56.806Z,6
2018-11-07T07:01:56.887Z,5.99
2018-11-07T07:02:56.803Z,6
2018-11-07T07:03:56.815Z,6
2018-11-07T07:04:57.035Z,6
2018-11-07T07:05:56.888Z,6.02
2018-11-07T07:06:57.155Z,6.04
2018-11-07T07:07:57.154Z,6.02
2018-11-07T07:08:56.938Z,5.98
2018-11-07T07:09:56.769Z,5.99
2018-11-07T07:10:56.813Z,6
2018-11-07T07:11:56.818Z,6.07
2018-11-07T07:12:56.753Z,6.14
2018-11-07T07:13:57.148Z,6.1
2018-11-07T07:14:57.007Z,6.09
2018-11-07T07:15:56.810Z,6.11
2018-11-07T07:16:57.032Z,6.09
2018-11-07T07:17:57.145Z,6.2
2018-11-07T07:18:56.777Z,6.21
2018-11-07T07:19:56.773Z,6.2
2018-11-07T07:20:56.784Z,6.19
2018-11-07T07:21:56.744Z,6.21
2018-11-07T07:22:56.820Z,6.25
2018-11-07T07:23:56.735Z,6.27
2018-11-07T07:24:56.747Z,6.25
2018-11-07T07:25:56.885Z,6.28
2018-11-07T07:26:56.715Z,6.3
2018-11-07T07:27:56.795Z,6.31
2018-11-07T07:28:56.767Z,6.33
2018-11-07T07:29:57.368Z,6.33
2018-11-07T07:30:56.749Z,6.35
2018-11-07T07:31:56.779Z,6.4
2018-11-07T07:32:57.191Z,6.38
2018-11-07T07:33:56.770Z,6.4
2018-11-07T07:34:56.725Z,6.5
2018-11-07T07:35:56.711Z,6.49
2018-11-07T07:36:56.754Z,6.49
2018-11-07T07:37:57.593Z,6.53
2018-11-07T07:38:56.737Z,6.56
2018-11-07T07:39:56.756Z,6.58
2018-11-07T07:40:57.197Z,6.6
2018-11-07T07:41:56.859Z,6.62
2018-11-07T07:42:56.832Z,6.63
2018-11-07T07:43:56.770Z,6.7
2018-11-07T07:44:57.001Z,6.78
2018-11-07T07:45:56.747Z,6.74
2018-11-07T07:46:56.723Z,6.77
2018-11-07T07:47:56.800Z,6.84
2018-11-07T07:48:56.741Z,6.87
2018-11-07T07:49:56.749Z,6.94
2018-11-07T07:50:56.778Z,7.01
2018-11-07T07:51:56.767Z,7
2018-11-07T07:52:57.299Z,7.03
2018-11-07T07:53:56.799Z,7.07
2018-11-07T07:54:56.991Z,7.09
2018-11-07T07:55:56.710Z,7.13
2018-11-07T07:56:56.767Z,7.18
2018-11-07T07:57:57.136Z,7.15
2018-11-07T07:58:56.824Z,7.22
2018-11-07T07:59:56.789Z,7.27
2018-11-07T08:00:56.753Z,7.28
2018-11-07T08:01:56.716Z,7.29
2018-11-07T08:02:56.734Z,7.32
2018-11-07T08:03:57.041Z,7.34
2018-11-07T08:04:56.818Z,7.33
2018-11-07T08:05:56.725Z,7.39
2018-11-07T08:06:57.139Z,7.41
2018-11-07T08:07:56.857Z,7.35
2018-11-07T08:08:56.731Z,7.35
2018-11-07T08:09:56.765Z,7.39
2018-11-07T08:10:56.750Z,7.32
2018-11-07T08:11:56.821Z,7.31
2018-11-07T08:12:56.758Z,7.36
2018-11-07T08:13:57.499Z,7.33
2018-11-07T08:14:56.902Z,7.31
2018-11-07T08:15:56.676Z,7.34
2018-11-07T08:16:56.788Z,7.37
2018-11-07T08:17:57.087Z,7.39
2018-11-07T08:18:56.828Z,7.44
2018-11-07T08:19:56.757Z,7.48
2018-11-07T08:20:56.689Z,7.49
2018-11-07T08:21:56.825Z,7.51
2018-11-07T08:22:56.758Z,7.54
2018-11-07T08:23:56.708Z,7.6
2018-11-07T08:24:56.868Z,7.56
2018-11-07T08:25:56.744Z,7.62
2018-11-07T08:26:56.798Z,7.64
2018-11-07T08:27:56.765Z,7.61
2018-11-07T08:28:56.985Z,7.65
2018-11-07T08:29:56.818Z,7.67
2018-11-07T08:30:57.723Z,7.69
2018-11-07T08:31:56.858Z,7.74
2018-11-07T08:32:56.670Z,7.79
2018-11-07T08:33:56.666Z,7.8
2018-11-07T08:34:56.847Z,7.81
2018-11-07T08:35:56.689Z,7.82
2018-11-07T08:36:56.688Z,7.85
2018-11-07T08:37:56.866Z,7.89
2018-11-07T08:38:56.711Z,7.94
2018-11-07T08:39:56.715Z,7.93
2018-11-07T08:40:56.715Z,7.97
2018-11-07T08:41:56.665Z,7.98
2018-11-07T08:42:56.771Z,7.98
2018-11-07T08:43:56.770Z,7.99
2018-11-07T08:44:56.705Z,7.98
2018-11-07T08:45:56.594Z,7.99
2018-11-07T08:46:56.797Z,7.95
2018-11-07T08:47:56.863Z,8.06
2018-11-07T08:48:56.846Z,7.99
2018-11-07T08:49:56.699Z,7.97
2018-11-07T08:50:57.046Z,8.01
2018-11-07T08:51:56.629Z,8.11
2018-11-07T08:52:56.626Z,8.18
2018-11-07T08:53:56.711Z,8.19
2018-11-07T08:54:56.896Z,8.2
2018-11-07T08:55:56.659Z,8.21
2018-11-07T08:56:56.718Z,8.16
2018-11-07T08:57:56.654Z,8.24
2018-11-07T08:58:56.674Z,8.19
2018-11-07T08:59:56.748Z,8.25
2018-11-07T09:00:57.127Z,8.22
2018-11-07T09:01:56.827Z,8.22
2018-11-07T09:02:56.635Z,8.2
2018-11-07T09:03:56.919Z,8.24
2018-11-07T09:04:56.632Z,8.19
2018-11-07T09:05:56.604Z,8.27
2018-11-07T09:06:56.609Z,8.29
2018-11-07T09:07:56.664Z,8.34
2018-11-07T09:08:56.660Z,8.22
2018-11-07T09:09:56.617Z,8.29
2018-11-07T09:10:56.657Z,8.34
2018-11-07T09:11:56.828Z,8.28
2018-11-07T09:12:56.726Z,8.32
2018-11-07T09:13:56.620Z,8.37
2018-11-07T09:14:56.647Z,8.37
2018-11-07T09:15:57.319Z,8.44
2018-11-07T09:16:56.661Z,8.4
2018-11-07T09:17:56.626Z,8.38
2018-11-07T09:18:56.643Z,8.48
2018-11-07T09:19:57.125Z,8.44
2018-11-07T09:20:56.669Z,8.47
2018-11-07T09:21:56.611Z,8.49
2018-11-07T09:22:56.857Z,8.56
2018-11-07T09:23:56.697Z,8.48
2018-11-07T09:24:56.709Z,8.55
2018-11-07T09:25:56.870Z,8.51
2018-11-07T09:26:56.878Z,8.58
2018-11-07T09:27:56.623Z,8.62
2018-11-07T09:28:56.891Z,8.59
2018-11-07T09:29:56.698Z,8.7
2018-11-07T09:30:56.778Z,8.61
2018-11-07T09:31:56.690Z,8.76
2018-11-07T09:32:56.709Z,8.64
2018-11-07T09:33:56.646Z,8.7
2018-11-07T09:34:56.884Z,8.73
2018-11-07T09:35:56.559Z,8.73
2018-11-07T09:36:56.550Z,8.76
2018-11-07T09:37:56.955Z,8.65
2018-11-07T09:38:56.648Z,8.68
2018-11-07T09:39:56.911Z,8.6
2018-11-07T09:40:56.552Z,8.65
2018-11-07T09:41:56.665Z,8.76
2018-11-07T09:42:56.609Z,8.75
2018-11-07T09:43:56.673Z,8.64
2018-11-07T09:44:56.822Z,8.75
2018-11-07T09:45:56.797Z,8.67
2018-11-07T09:46:56.824Z,8.84
2018-11-07T09:47:56.646Z,8.83
2018-11-07T09:48:56.915Z,8.85
2018-11-07T09:49:56.981Z,8.84
2018-11-07T09:50:56.919Z,8.82
2018-11-07T09:51:56.589Z,8.86
2018-11-07T09:52:56.592Z,8.87
2018-11-07T09:53:57.630Z,8.97
2018-11-07T09:54:56.894Z,8.86
2018-11-07T09:55:56.557Z,8.85
2018-11-07T09:56:56.518Z,8.89
2018-11-07T09:57:56.867Z,8.96
2018-11-07T09:58:56.566Z,8.94
2018-11-07T09:59:56.592Z,8.99
2018-11-07T10:00:56.916Z,8.99
2018-11-07T10:01:56.733Z,9.01
2018-11-07T10:02:56.737Z,9.14
2018-11-07T10:03:56.525Z,9.2
2018-11-07T10:04:56.686Z,8.96
2018-11-07T10:05:56.763Z,9.15
2018-11-07T10:06:56.853Z,9.18
2018-11-07T10:07:56.531Z,9.19
2018-11-07T10:08:56.609Z,9.27
2018-11-07T10:09:56.532Z,9.2
2018-11-07T10:10:56.573Z,9.3
2018-11-07T10:11:56.552Z,9.25
2018-11-07T10:12:57.005Z,9.18
2018-11-07T10:13:56.663Z,9.15
2018-11-07T10:14:56.609Z,9.11
2018-11-07T10:15:56.535Z,9.07
2018-11-07T10:16:56.752Z,9.11
2018-11-07T10:17:56.530Z,9.17
2018-11-07T10:18:56.855Z,9.16
2018-11-07T10:19:56.537Z,9.22
2018-11-07T10:20:56.579Z,9.29
2018-11-07T10:21:56.648Z,9.12
2018-11-07T10:22:56.509Z,9.26
2018-11-07T10:23:56.497Z,9.15
2018-11-07T10:24:56.535Z,9.11
2018-11-07T10:25:56.479Z,9.25
2018-11-07T10:26:57.750Z,9.11
2018-11-07T10:27:59.572Z,9.21
2018-11-07T10:28:58.875Z,9.22
2018-11-07T10:29:59.817Z,9.29
2018-11-07T10:30:56.590Z,9.35
2018-11-07T10:31:56.542Z,9.48
2018-11-07T10:32:56.513Z,9.3
2018-11-07T10:33:56.612Z,9.26
2018-11-07T10:34:56.501Z,9.29
2018-11-07T10:35:56.491Z,9.32
2018-11-07T10:36:56.474Z,9.22
2018-11-07T10:37:57.295Z,9.35
2018-11-07T10:38:56.905Z,9.23
2018-11-07T10:39:57.212Z,9.19
2018-11-07T10:40:56.485Z,9.14
2018-11-07T10:41:56.547Z,9.22
2018-11-07T10:42:56.591Z,9.18
2018-11-07T10:43:57.170Z,9.23
2018-11-07T10:44:56.491Z,9.22
2018-11-07T10:45:56.877Z,9.24
2018-11-07T10:46:56.555Z,9.29
2018-11-07T10:47:56.846Z,9.26
2018-11-07T10:48:56.936Z,9.23
2018-11-07T10:49:56.694Z,9.35
2018-11-07T10:50:56.531Z,9.29
2018-11-07T10:51:57.313Z,9.37
2018-11-07T10:52:56.642Z,9.45
2018-11-07T10:53:56.499Z,9.39
2018-11-07T10:54:56.628Z,9.36
2018-11-07T10:55:56.516Z,9.52
2018-11-07T10:56:56.428Z,9.48
2018-11-07T10:57:56.472Z,9.47
2018-11-07T10:58:56.815Z,9.45
2018-11-07T10:59:56.582Z,9.55
2018-11-07T11:00:56.616Z,9.59
2018-11-07T11:01:56.471Z,9.55
2018-11-07T11:02:56.464Z,9.61
2018-11-07T11:03:56.510Z,9.61
2018-11-07T11:04:56.777Z,9.68
2018-11-07T11:05:56.537Z,9.52
2018-11-07T11:06:57.031Z,9.62
2018-11-07T11:07:56.604Z,9.7
2018-11-07T11:08:56.553Z,9.78
2018-11-07T11:09:56.671Z,9.65
2018-11-07T11:10:57.171Z,9.75
2018-11-07T11:11:56.492Z,9.88
2018-11-07T11:12:56.548Z,9.8
2018-11-07T11:13:56.578Z,9.86
2018-11-07T11:14:56.481Z,9.6
2018-11-07T11:15:56.623Z,9.62
2018-11-07T11:16:56.968Z,9.71
2018-11-07T11:17:56.521Z,9.82
2018-11-07T11:18:56.597Z,9.91
2018-11-07T11:19:56.440Z,9.95
2018-11-07T11:20:56.871Z,10.09
2018-11-07T11:21:56.544Z,9.83
2018-11-07T11:22:56.669Z,9.96
2018-11-07T11:23:56.438Z,10.04
2018-11-07T11:24:56.558Z,9.72
2018-11-07T11:25:59.387Z,9.65
2018-11-07T11:26:56.640Z,9.67
2018-11-07T11:27:56.439Z,9.85
2018-11-07T11:28:56.679Z,9.75
2018-11-07T11:29:57.265Z,9.8
2018-11-07T11:30:56.390Z,9.83
2018-11-07T11:31:56.393Z,10
2018-11-07T11:32:56.539Z,10.08
2018-11-07T11:33:57.358Z,9.96
2018-11-07T11:34:57.767Z,9.99
2018-11-07T11:35:56.880Z,9.9
2018-11-07T11:36:56.536Z,9.88
2018-11-07T11:37:56.433Z,10.04
2018-11-07T11:38:56.469Z,10.04
2018-11-07T11:39:56.532Z,9.94
2018-11-07T11:40:56.865Z,9.98
2018-11-07T11:41:56.411Z,9.92
2018-11-07T11:42:56.854Z,9.98
2018-11-07T11:43:56.443Z,10
2018-11-07T11:44:56.388Z,10.1
2018-11-07T11:45:56.562Z,9.92
2018-11-07T11:46:56.548Z,9.9
2018-11-07T11:47:56.580Z,9.98
2018-11-07T11:48:56.742Z,9.77
2018-11-07T11:49:56.500Z,9.98
2018-11-07T11:50:56.399Z,10.03
2018-11-07T11:51:56.380Z,10.12
2018-11-07T11:52:56.404Z,9.89
2018-11-07T11:53:56.373Z,10.06
2018-11-07T11:54:56.425Z,10.06
2018-11-07T11:55:56.384Z,9.94
2018-11-07T11:56:56.406Z,10.06
2018-11-07T11:57:56.764Z,10
2018-11-07T11:58:57.278Z,10.11
2018-11-07T11:59:59.159Z,10.21
2018-11-07T12:00:56.374Z,10.09
2018-11-07T12:01:56.393Z,10.06
2018-11-07T12:02:56.400Z,9.98
2018-11-07T12:03:56.499Z,9.88
2018-11-07T12:04:56.367Z,10.1
2018-11-07T12:05:56.361Z,10.1
2018-11-07T12:06:56.381Z,10
2018-11-07T12:07:56.441Z,9.97
2018-11-07T12:08:56.959Z,10.11
2018-11-07T12:09:56.359Z,10.24
2018-11-07T12:10:56.400Z,10.11
2018-11-07T12:11:56.582Z,10.16
2018-11-07T12:12:56.455Z,10.17
2018-11-07T12:13:56.417Z,10.13
2018-11-07T12:14:56.467Z,10.35
2018-11-07T12:15:56.448Z,10.14
2018-11-07T12:16:56.381Z,10.13
2018-11-07T12:17:56.354Z,10.12
2018-11-07T12:18:56.461Z,10.13
2018-11-07T12:19:56.764Z,10.08
2018-11-07T12:20:56.466Z,10.12
2018-11-07T12:21:56.511Z,10.3
2018-11-07T12:22:56.450Z,10.12
2018-11-07T12:23:56.340Z,9.99
2018-11-07T12:24:56.439Z,9.96
2018-11-07T12:25:56.468Z,10.08
2018-11-07T12:26:57.180Z,10.09
2018-11-07T12:27:56.672Z,10.15
2018-11-07T12:28:56.444Z,9.82
2018-11-07T12:29:56.328Z,9.88
2018-11-07T12:30:56.328Z,10.1
2018-11-07T12:31:56.337Z,10.16
2018-11-07T12:32:57.548Z,10.09
2018-11-07T12:33:56.499Z,10.06
2018-11-07T12:34:56.406Z,10.32
2018-11-07T12:35:56.369Z,10.04
2018-11-07T12:36:56.551Z,10.07
2018-11-07T12:37:56.588Z,9.98
2018-11-07T12:38:56.362Z,9.94
2018-11-07T12:39:56.525Z,9.73
2018-11-07T12:40:56.490Z,10.02
2018-11-07T12:41:56.430Z,10.01
2018-11-07T12:42:57.142Z,10.13
2018-11-07T12:43:56.724Z,9.78
2018-11-07T12:44:56.302Z,9.86
2018-11-07T12:45:56.342Z,9.9
2018-11-07T12:46:56.388Z,10.08
2018-11-07T12:47:56.360Z,10.07
2018-11-07T12:48:56.301Z,10.03
2018-11-07T12:49:57.155Z,9.91
2018-11-07T12:50:56.440Z,9.91
2018-11-07T12:51:56.440Z,10.03
2018-11-07T12:52:56.357Z,9.97
2018-11-07T12:53:56.297Z,10.11
2018-11-07T12:54:56.343Z,10.1
2018-11-07T12:55:56.493Z,10.08
2018-11-07T12:56:56.614Z,9.93
2018-11-07T12:57:57.728Z,9.96
2018-11-07T12:58:56.295Z,9.9
2018-11-07T12:59:56.410Z,10.02
2018-11-07T13:00:56.375Z,9.94
2018-11-07T13:01:56.343Z,10.03
2018-11-07T13:02:59.222Z,9.85
2018-11-07T13:03:56.532Z,9.85
2018-11-07T13:04:56.748Z,9.88
2018-11-07T13:05:56.976Z,9.8
2018-11-07T13:06:56.508Z,9.61
2018-11-07T13:07:56.543Z,9.64
2018-11-07T13:08:56.340Z,9.54
2018-11-07T13:09:56.238Z,9.57
2018-11-07T13:10:56.309Z,9.81
2018-11-07T13:11:56.305Z,9.65
2018-11-07T13:12:56.615Z,9.88
2018-11-07T13:13:56.269Z,9.8
2018-11-07T13:14:56.312Z,9.69
2018-11-07T13:15:56.381Z,9.75
2018-11-07T13:16:56.325Z,9.75
2018-11-07T13:17:57.805Z,9.6
2018-11-07T13:18:56.485Z,9.64
2018-11-07T13:19:56.389Z,9.76
2018-11-07T13:20:56.316Z,9.6